createdAt,value
2022-11-07T00:01:14.048Z,86.53
2022-11-07T00:04:15.490Z,86.49
2022-11-07T00:07:17.299Z,86.77
2022-11-07T00:10:18.771Z,86.71
2022-11-07T00:13:20.270Z,86.47
2022-11-07T00:16:23.102Z,86.47
2022-11-07T00:19:24.718Z,86.09
2022-11-07T00:22:26.130Z,86.20
2022-11-07T00:25:27.556Z,86.12
2022-11-07T00:28:29.070Z,86.32
2022-11-07T00:31:32.226Z,86.25
2022-11-07T00:34:35.378Z,86.31
2022-11-07T00:37:37.164Z,86.30
2022-11-07T00:40:38.763Z,86.10
2022-11-07T00:43:40.316Z,86.05
2022-11-07T00:46:43.295Z,86.06
2022-11-07T00:49:44.780Z,86.31
2022-11-07T00:52:46.249Z,86.50
2022-11-07T00:55:47.776Z,86.38
2022-11-07T00:58:49.347Z,86.54
2022-11-07T01:01:52.293Z,86.32
2022-11-07T01:05:12.200Z,86.36
2022-11-07T01:08:13.737Z,86.38
2022-11-07T01:11:15.549Z,86.56
2022-11-07T01:14:18.643Z,86.55
2022-11-07T01:17:21.559Z,86.48
2022-11-07T01:20:23.224Z,86.51
2022-11-07T01:23:24.754Z,86.68
2022-11-07T01:26:26.307Z,87.05
2022-11-07T01:29:27.961Z,86.55
2022-11-07T01:32:30.959Z,86.39
2022-11-07T01:35:33.145Z,86.67
2022-11-07T01:38:35.314Z,86.48
2022-11-07T01:41:37.878Z,86.33
2022-11-07T01:44:50.701Z,86.61
2022-11-07T01:47:56.201Z,86.43
2022-11-07T01:50:57.768Z,86.24
2022-11-07T01:54:00.279Z,86.34
2022-11-07T01:57:04.307Z,86.25
2022-11-07T02:00:09.181Z,86.15
2022-11-07T02:03:15.989Z,86.07
2022-11-07T02:06:21.086Z,86.13
2022-11-07T02:09:22.720Z,86.21
2022-11-07T02:12:24.995Z,86.13
2022-11-07T02:15:26.950Z,86.17
2022-11-07T02:18:30.539Z,86.09
2022-11-07T02:21:36.903Z,85.94
2022-11-07T02:24:40.437Z,85.94
2022-11-07T02:27:42.600Z,86.19
2022-11-07T02:30:44.279Z,86.17
2022-11-07T02:33:45.875Z,86.21
2022-11-07T02:36:47.352Z,86.32
2022-11-07T02:39:50.971Z,86.45
2022-11-07T02:42:52.605Z,86.28
2022-11-07T02:45:55.698Z,86.49
2022-11-07T02:48:58.202Z,86.47
2022-11-07T02:51:59.908Z,86.40
2022-11-07T02:55:02.838Z,86.56
2022-11-07T02:58:05.324Z,86.93
2022-11-07T03:01:07.238Z,86.88
2022-11-07T03:04:08.792Z,87.00
2022-11-07T03:07:10.466Z,86.83
2022-11-07T03:10:14.478Z,87.38
2022-11-07T03:13:16.438Z,87.42
2022-11-07T03:16:19.103Z,87.39
2022-11-07T03:19:20.991Z,87.43
2022-11-07T03:22:25.396Z,87.48
2022-11-07T03:25:28.353Z,87.43
2022-11-07T03:28:29.837Z,87.21
2022-11-07T03:31:31.476Z,87.23
2022-11-07T03:34:33.127Z,87.14
2022-11-07T03:37:34.621Z,87.35
2022-11-07T03:40:37.555Z,87.45
2022-11-07T03:43:39.139Z,87.50
2022-11-07T03:46:40.651Z,87.44
2022-11-07T03:49:42.085Z,87.43
2022-11-07T03:52:43.629Z,87.70
2022-11-07T03:55:46.723Z,87.79
2022-11-07T03:58:48.413Z,87.82
2022-11-07T04:01:49.980Z,87.89
2022-11-07T04:04:54.618Z,87.66
2022-11-07T04:07:56.388Z,87.83
2022-11-07T04:11:00.013Z,87.89
2022-11-07T04:14:20.128Z,87.86
2022-11-07T04:17:21.737Z,88.08
2022-11-07T04:20:23.276Z,88.02
2022-11-07T04:23:24.742Z,87.99
2022-11-07T04:26:46.081Z,88.02
2022-11-07T04:29:47.631Z,88.01
2022-11-07T04:32:50.016Z,88.08
2022-11-07T04:35:51.648Z,88.02
2022-11-07T04:38:53.130Z,88.04
2022-11-07T04:41:56.727Z,88.20
2022-11-07T04:44:58.236Z,88.48
2022-11-07T04:47:59.793Z,88.28
2022-11-07T04:51:01.314Z,88.42
2022-11-07T04:54:03.016Z,88.69
2022-11-07T04:57:05.811Z,88.63
2022-11-07T05:00:08.392Z,88.76
2022-11-07T05:03:10.163Z,88.95
2022-11-07T05:06:13.417Z,88.84
2022-11-07T05:09:15.659Z,88.95
2022-11-07T05:12:18.556Z,88.85
2022-11-07T05:15:20.917Z,88.79
2022-11-07T05:18:25.115Z,88.67
2022-11-07T05:21:26.792Z,88.68
2022-11-07T05:24:28.363Z,88.74
2022-11-07T05:27:31.213Z,88.63
2022-11-07T05:30:32.817Z,88.78
2022-11-07T05:33:34.764Z,88.76
2022-11-07T05:36:36.518Z,89.06
2022-11-07T05:39:38.267Z,89.16
2022-11-07T05:42:41.283Z,89.08
2022-11-07T05:45:43.109Z,89.15
2022-11-07T05:48:44.605Z,89.05
2022-11-07T05:51:46.157Z,88.96
2022-11-07T05:54:47.629Z,89.27
2022-11-07T05:57:50.846Z,89.09
2022-11-07T06:00:52.528Z,89.15
2022-11-07T06:03:54.079Z,89.29
2022-11-07T06:06:55.540Z,89.24
2022-11-07T06:09:56.989Z,89.21
2022-11-07T06:13:00.516Z,89.29
2022-11-07T06:16:02.608Z,89.04
2022-11-07T06:19:04.323Z,89.12
2022-11-07T06:22:13.192Z,89.01
2022-11-07T06:25:14.808Z,89.22
2022-11-07T06:28:17.590Z,89.19
2022-11-07T06:31:19.332Z,89.38
2022-11-07T06:34:20.932Z,89.23
2022-11-07T06:37:22.469Z,89.47
2022-11-07T06:40:24.090Z,89.40
2022-11-07T06:43:27.114Z,89.48
2022-11-07T06:46:28.632Z,89.57
2022-11-07T06:49:30.126Z,89.81
2022-11-07T06:52:31.606Z,89.88
2022-11-07T06:55:34.056Z,89.95
2022-11-07T06:58:38.083Z,90.20
2022-11-07T07:01:39.645Z,90.32
2022-11-07T07:04:41.247Z,90.33
2022-11-07T07:07:42.860Z,90.75
2022-11-07T07:10:45.385Z,90.62
2022-11-07T07:13:48.487Z,90.63
2022-11-07T07:16:50.045Z,90.63
2022-11-07T07:19:51.612Z,90.52
2022-11-07T07:22:57.967Z,90.36
2022-11-07T07:26:03.532Z,90.40
2022-11-07T07:29:06.426Z,90.42
2022-11-07T07:32:08.438Z,90.55
2022-11-07T07:35:10.713Z,90.55
2022-11-07T07:38:12.471Z,90.47
2022-11-07T07:41:14.158Z,90.18
2022-11-07T07:44:17.075Z,90.17
2022-11-07T07:47:18.716Z,90.44
2022-11-07T07:50:21.446Z,90.41
2022-11-07T07:53:22.964Z,90.40
2022-11-07T07:56:24.599Z,90.55
2022-11-07T07:59:27.582Z,90.53
2022-11-07T08:02:29.082Z,90.65
2022-11-07T08:05:30.688Z,90.40
2022-11-07T08:08:37.769Z,90.75
2022-11-07T08:11:39.943Z,90.65
2022-11-07T08:14:43.022Z,90.54
2022-11-07T08:17:45.118Z,90.25
2022-11-07T08:20:46.679Z,90.29
2022-11-07T08:23:49.589Z,89.95
2022-11-07T08:26:51.136Z,89.58
2022-11-07T08:29:54.167Z,89.70
2022-11-07T08:32:58.425Z,89.84
2022-11-07T08:36:01.567Z,89.72
2022-11-07T08:39:03.053Z,89.46
2022-11-07T08:42:04.600Z,89.67
2022-11-07T08:45:08.605Z,90.04
2022-11-07T08:48:10.602Z,90.03
2022-11-07T08:51:12.068Z,89.65
2022-11-07T08:54:13.752Z,89.65
2022-11-07T08:57:15.250Z,89.86
2022-11-07T09:00:18.826Z,89.83
2022-11-07T09:06:42.672Z,89.45
2022-11-07T09:09:44.114Z,89.19
2022-11-07T09:12:46.358Z,89.42
2022-11-07T09:15:51.493Z,88.96
2022-11-07T09:18:53.674Z,89.04
2022-11-07T09:21:56.437Z,88.86
2022-11-07T09:24:57.994Z,88.99
2022-11-07T09:28:02.389Z,89.02
2022-11-07T09:31:06.465Z,88.28
2022-11-07T09:34:10.352Z,88.57
2022-11-07T09:37:12.025Z,88.41
2022-11-07T09:40:21.822Z,88.15
2022-11-07T09:43:47.696Z,88.46
2022-11-07T09:46:59.108Z,88.74
2022-11-07T09:50:01.524Z,88.45
2022-11-07T09:53:05.746Z,88.47
2022-11-07T09:56:09.713Z,88.70
2022-11-07T09:59:17.148Z,88.55
2022-11-07T10:02:21.748Z,88.28
2022-11-07T10:05:29.967Z,88.44
2022-11-07T10:08:38.843Z,87.76
2022-11-07T10:11:42.484Z,87.29
2022-11-07T10:14:47.317Z,86.76
2022-11-07T10:17:54.096Z,86.87
2022-11-07T10:21:30.539Z,86.79
2022-11-07T10:24:26.661Z,86.15
2022-11-07T10:27:28.240Z,85.38
2022-11-07T10:30:29.835Z,85.35
2022-11-07T10:33:37.370Z,84.13
2022-11-07T10:36:38.879Z,83.61
2022-11-07T10:39:40.530Z,84.00
2022-11-07T10:42:44.314Z,83.51
2022-11-07T10:45:46.553Z,84.57
2022-11-07T10:48:54.123Z,84.21
2022-11-07T10:52:05.230Z,83.12
2022-11-07T10:55:08.030Z,84.03
2022-11-07T10:58:18.119Z,83.46
2022-11-07T11:01:23.404Z,83.35
2022-11-07T11:04:27.594Z,84.00
2022-11-07T11:07:34.244Z,84.01
2022-11-07T11:10:38.835Z,83.31
2022-11-07T11:13:40.307Z,82.94
2022-11-07T11:16:43.379Z,83.38
2022-11-07T11:19:52.753Z,83.94
2022-11-07T11:22:54.606Z,83.95
2022-11-07T11:25:59.930Z,83.53
2022-11-07T11:29:03.750Z,83.30
2022-11-07T11:32:05.581Z,83.47
2022-11-07T11:35:15.376Z,83.68
2022-11-07T11:38:19.031Z,83.94
2022-11-07T11:41:23.322Z,83.80
2022-11-07T11:44:31.306Z,83.96
2022-11-07T11:47:35.784Z,84.07
2022-11-07T11:50:43.253Z,84.60
2022-11-07T11:53:44.777Z,84.20
2022-11-07T11:56:53.626Z,83.60
2022-11-07T12:00:03.020Z,83.34
2022-11-07T12:03:18.339Z,83.98
2022-11-07T12:06:24.512Z,83.51
2022-11-07T12:09:33.184Z,83.47
2022-11-07T12:12:41.754Z,84.43
2022-11-07T12:15:51.700Z,84.07
2022-11-07T12:18:58.056Z,83.69
2022-11-07T12:22:05.790Z,83.79
2022-11-07T12:25:09.982Z,84.20
2022-11-07T12:28:22.847Z,84.26
2022-11-07T12:31:30.243Z,84.62
2022-11-07T12:34:40.449Z,84.82
2022-11-07T12:38:02.564Z,85.13
2022-11-07T12:41:09.547Z,85.23
2022-11-07T12:44:22.267Z,85.80
2022-11-07T12:47:38.006Z,86.33
2022-11-07T12:50:44.553Z,86.89
2022-11-07T12:53:52.226Z,87.99
2022-11-07T12:56:54.375Z,89.75
2022-11-07T12:59:58.474Z,90.92
2022-11-07T13:03:11.519Z,92.58
2022-11-07T13:06:15.770Z,94.14
2022-11-07T13:09:24.205Z,95.07
2022-11-07T13:12:28.604Z,96.46
2022-11-07T13:15:47.562Z,97.56
2022-11-07T13:18:52.029Z,99.08
2022-11-07T13:21:58.671Z,99.24
2022-11-07T13:25:15.021Z,100.00
2022-11-07T13:28:25.672Z,100.00
2022-11-07T13:31:32.015Z,100.00
2022-11-07T13:34:41.655Z,100.00
2022-11-07T13:37:48.059Z,100.00
2022-11-07T13:40:52.714Z,100.00
2022-11-07T13:43:56.247Z,100.00
2022-11-07T13:47:01.087Z,100.00
2022-11-07T13:50:07.432Z,100.00
2022-11-07T13:53:12.518Z,100.00
2022-11-07T13:56:24.445Z,100.00
2022-11-07T13:59:36.685Z,100.00
2022-11-07T14:02:38.608Z,100.00
2022-11-07T14:05:40.317Z,100.00
2022-11-07T14:08:44.688Z,100.00
2022-11-07T14:11:49.944Z,100.00
2022-11-07T14:14:53.597Z,100.00
2022-11-07T14:17:55.276Z,100.00
2022-11-07T14:20:57.847Z,100.00
2022-11-07T14:23:59.931Z,100.00
2022-11-07T14:27:03.584Z,100.00
2022-11-07T14:30:15.152Z,100.00
2022-11-07T14:33:17.781Z,100.00
2022-11-07T14:36:19.918Z,100.00
2022-11-07T14:39:22.594Z,100.00
2022-11-07T14:42:25.871Z,100.00
2022-11-07T14:46:05.587Z,100.00
2022-11-07T14:48:51.396Z,100.00
2022-11-07T14:51:53.724Z,100.00
2022-11-07T14:54:59.811Z,100.00
2022-11-07T14:58:04.168Z,100.00
2022-11-07T15:01:12.029Z,100.00
2022-11-07T15:04:25.233Z,100.00
2022-11-07T15:07:27.766Z,100.00
2022-11-07T15:10:31.501Z,100.00
2022-11-07T15:13:34.861Z,100.00
2022-11-07T15:16:37.312Z,100.00
2022-11-07T15:19:38.884Z,100.00
2022-11-07T15:22:40.563Z,100.00
2022-11-07T15:25:51.128Z,100.00
2022-11-07T15:28:54.279Z,100.00
2022-11-07T15:31:56.256Z,99.99
2022-11-07T15:35:12.435Z,99.76
2022-11-07T15:38:20.718Z,99.69
2022-11-07T15:41:22.663Z,99.63
2022-11-07T15:44:25.576Z,99.40
2022-11-07T15:47:27.147Z,99.22
2022-11-07T15:50:28.744Z,99.07
2022-11-07T15:53:30.364Z,98.84
2022-11-07T15:56:31.838Z,98.87
2022-11-07T15:59:36.604Z,98.82
2022-11-07T16:02:38.249Z,99.07
2022-11-07T16:05:40.464Z,98.86
2022-11-07T16:08:42.122Z,98.98
2022-11-07T16:11:43.679Z,98.63
2022-11-07T16:14:46.747Z,98.43
2022-11-07T16:17:48.581Z,97.78
2022-11-07T16:20:50.263Z,97.45
2022-11-07T16:23:52.684Z,97.20
2022-11-07T16:26:54.237Z,97.02
2022-11-07T16:29:57.277Z,96.98
2022-11-07T16:32:59.681Z,96.67
2022-11-07T16:36:03.096Z,96.17
2022-11-07T16:39:08.014Z,96.05
2022-11-07T16:42:14.147Z,96.03
2022-11-07T16:45:17.676Z,95.36
2022-11-07T16:48:20.527Z,95.29
2022-11-07T16:51:22.550Z,95.15
2022-11-07T16:54:24.394Z,95.08
2022-11-07T16:57:26.274Z,95.14
2022-11-07T17:00:29.270Z,95.27
2022-11-07T17:03:30.876Z,94.95
2022-11-07T17:06:33.775Z,94.97
2022-11-07T17:09:35.403Z,94.78
2022-11-07T17:12:37.080Z,95.03
2022-11-07T17:15:40.680Z,95.22
2022-11-07T17:18:42.574Z,95.32
2022-11-07T17:21:48.473Z,95.16
2022-11-07T17:24:50.336Z,95.23
2022-11-07T17:27:52.072Z,95.30
2022-11-07T17:30:55.320Z,94.92
2022-11-07T17:33:56.975Z,95.07
2022-11-07T17:36:59.587Z,95.01
2022-11-07T17:40:01.216Z,95.08
2022-11-07T17:43:02.834Z,95.14
2022-11-07T17:46:09.141Z,95.00
2022-11-07T17:49:12.233Z,95.20
2022-11-07T17:52:13.809Z,95.35
2022-11-07T17:55:15.456Z,94.97
2022-11-07T17:58:17.281Z,94.98
2022-11-07T18:01:21.366Z,95.02
2022-11-07T18:04:22.907Z,94.81
2022-11-07T18:07:24.666Z,95.11
2022-11-07T18:10:26.109Z,95.30
2022-11-07T18:13:27.667Z,95.31
2022-11-07T18:16:31.644Z,95.14
2022-11-07T18:19:33.386Z,95.06
2022-11-07T18:22:37.560Z,95.24
2022-11-07T18:25:39.745Z,95.36
2022-11-07T18:28:42.661Z,95.65
2022-11-07T18:31:47.380Z,95.42
2022-11-07T18:34:49.142Z,95.85
2022-11-07T18:37:51.585Z,95.72
2022-11-07T18:40:56.975Z,95.72
2022-11-07T18:44:04.228Z,95.72
2022-11-07T18:47:08.254Z,95.81
2022-11-07T18:50:11.278Z,96.22
2022-11-07T18:53:12.924Z,95.95
2022-11-07T18:56:14.483Z,95.93
2022-11-07T18:59:16.014Z,96.07
2022-11-07T19:02:19.948Z,95.74
2022-11-07T19:05:22.186Z,95.52
2022-11-07T19:08:23.774Z,95.72
2022-11-07T19:11:26.644Z,95.64
2022-11-07T19:14:28.700Z,95.34
2022-11-07T19:17:31.645Z,95.46
2022-11-07T19:20:33.357Z,95.53
2022-11-07T19:23:35.586Z,95.71
2022-11-07T19:26:39.651Z,95.82
2022-11-07T19:29:41.262Z,95.69
2022-11-07T19:32:44.219Z,95.67
2022-11-07T19:35:45.714Z,95.71
2022-11-07T19:38:48.010Z,95.99
2022-11-07T19:41:49.592Z,96.27
2022-11-07T19:44:56.330Z,95.87
2022-11-07T19:47:59.657Z,96.11
2022-11-07T19:51:03.975Z,95.91
2022-11-07T19:54:07.565Z,96.14
2022-11-07T19:57:09.160Z,95.88
2022-11-07T20:00:11.195Z,95.97
2022-11-07T20:03:14.360Z,95.88
2022-11-07T20:06:17.565Z,95.73
2022-11-07T20:09:19.202Z,95.90
2022-11-07T20:12:20.723Z,96.16
2022-11-07T20:15:22.698Z,95.57
2022-11-07T20:18:25.694Z,95.46
2022-11-07T20:21:29.226Z,95.49
2022-11-07T20:24:30.997Z,95.48
2022-11-07T20:27:32.742Z,95.45
2022-11-07T20:30:34.562Z,95.21
2022-11-07T20:33:37.570Z,95.03
2022-11-07T20:36:39.150Z,94.96
2022-11-07T20:39:44.260Z,94.78
2022-11-07T20:42:45.928Z,94.81
2022-11-07T20:45:48.220Z,94.94
2022-11-07T20:48:51.182Z,94.80
2022-11-07T20:51:53.501Z,94.59
2022-11-07T20:54:55.099Z,94.61
2022-11-07T20:57:57.329Z,94.61
2022-11-07T21:00:58.930Z,94.47
2022-11-07T21:04:02.534Z,94.63
2022-11-07T21:07:04.195Z,94.28
2022-11-07T21:10:06.202Z,94.38
2022-11-07T21:13:08.328Z,94.39
2022-11-07T21:16:10.103Z,94.33
2022-11-07T21:19:14.697Z,94.19
2022-11-07T21:22:16.265Z,94.26
2022-11-07T21:25:21.240Z,94.48
2022-11-07T21:28:22.854Z,94.29
2022-11-07T21:31:27.222Z,94.38
2022-11-07T21:34:30.389Z,94.25
2022-11-07T21:37:32.528Z,94.08
2022-11-07T21:40:34.006Z,94.14
2022-11-07T21:43:35.850Z,94.47
2022-11-07T21:46:37.432Z,94.10
2022-11-07T21:49:40.499Z,94.24
2022-11-07T21:52:42.163Z,94.50
2022-11-07T21:55:43.718Z,94.49
2022-11-07T21:58:45.375Z,94.52
2022-11-07T22:01:48.766Z,94.76
2022-11-07T22:04:52.058Z,94.63
2022-11-07T22:07:53.736Z,94.82
2022-11-07T22:10:55.166Z,94.72
2022-11-07T22:13:56.800Z,95.21
2022-11-07T22:16:58.260Z,95.14
2022-11-07T22:20:01.236Z,95.33
2022-11-07T22:23:02.687Z,95.47
2022-11-07T22:26:04.722Z,95.29
2022-11-07T22:29:06.213Z,95.69
2022-11-07T22:32:07.728Z,95.95
2022-11-07T22:35:10.899Z,95.80
2022-11-07T22:38:12.500Z,95.85
2022-11-07T22:41:15.055Z,95.81
2022-11-07T22:44:16.969Z,96.10
2022-11-07T22:47:18.685Z,96.08
2022-11-07T22:50:21.604Z,95.60
2022-11-07T22:53:26.184Z,95.51
2022-11-07T22:56:28.255Z,95.59
2022-11-07T22:59:29.996Z,95.45
2022-11-07T23:02:32.117Z,95.52
2022-11-07T23:05:36.012Z,95.42
2022-11-07T23:08:38.049Z,95.45
2022-11-07T23:11:45.868Z,95.68
2022-11-07T23:14:48.374Z,95.64
2022-11-07T23:17:49.986Z,95.77
2022-11-07T23:21:10.005Z,96.01
2022-11-07T23:24:11.934Z,95.83
2022-11-07T23:27:13.552Z,96.21
2022-11-07T23:30:15.116Z,96.25
2022-11-07T23:33:16.620Z,96.46
2022-11-07T23:36:19.600Z,96.64
2022-11-07T23:39:22.017Z,96.62
2022-11-07T23:42:23.649Z,96.76
2022-11-07T23:45:43.735Z,96.61
2022-11-07T23:49:04.483Z,96.81
2022-11-07T23:52:07.354Z,96.76
2022-11-07T23:55:27.553Z,96.90
2022-11-07T23:58:47.844Z,97.00
